Time;durP1;ratioP1;P1;durP2;ratioP2;P2;SDS_P1;SDS_P2;PMS_P1;PMS_P2;Temp;Humidity;BMP_temperature;BMP_pressure;BME280_temperature;BME280_humidity;BME280_pressure;Samples;Min_cycle;Max_cycle;Signal;HPM_P1;HPM_P2
2023/10/10 00:00:37;;;;;;;6.17;4.77;;;5.40;99.90;4.50;100627;;;;568663;249;24102;-80
2023/10/10 00:02:58;;;;;;;5.77;4.23;;;5.40;99.90;4.50;100629;;;;568775;249;26334;-80
2023/10/10 00:05:33;;;;;;;10.00;5.07;;;5.40;99.90;4.50;100637;;;;568619;249;24176;-80
2023/10/10 00:07:53;;;;;;;6.67;5.13;;;5.40;99.90;4.50;100630;;;;568133;249;24206;-80
2023/10/10 00:10:21;;;;;;;9.33;5.20;;;5.40;99.90;4.40;100631;;;;568591;249;24226;-80
2023/10/10 00:12:49;;;;;;;6.33;5.07;;;5.40;99.90;4.40;100636;;;;568733;249;24193;-80
2023/10/10 00:15:23;;;;;;;6.23;4.73;;;5.30;99.90;4.40;100624;;;;569053;249;24108;-80
2023/10/10 00:17:46;;;;;;;6.17;4.70;;;5.30;99.90;4.30;100630;;;;563396;249;35273;-81
2023/10/10 00:20:24;;;;;;;6.47;4.40;;;5.30;99.90;4.30;100621;;;;563772;248;35271;-80
2023/10/10 00:22:58;;;;;;;7.07;5.37;;;5.30;99.90;4.30;100623;;;;563302;249;35297;-80
2023/10/10 00:25:19;;;;;;;6.00;4.13;;;5.20;99.90;4.20;100619;;;;567624;249;24164;-80
2023/10/10 00:27:49;;;;;;;8.57;3.73;;;5.10;99.90;4.10;100611;;;;568583;249;24164;-79
2023/10/10 00:30:16;;;;;;;6.77;4.13;;;5.00;99.90;4.00;100616;;;;577551;247;24114;-79
2023/10/10 00:32:46;;;;;;;7.40;5.30;;;5.00;99.90;3.90;100628;;;;568484;249;24088;-79
2023/10/10 00:35:12;;;;;;;7.17;4.97;;;4.90;99.90;3.90;100624;;;;568504;249;24125;-79
2023/10/10 00:37:43;;;;;;;10.60;5.40;;;4.80;99.90;3.80;100612;;;;568956;248;24166;-79
2023/10/10 00:40:12;;;;;;;8.23;5.60;;;4.80;99.90;3.70;100611;;;;569252;248;24218;-81
2023/10/10 00:42:42;;;;;;;7.77;5.27;;;4.70;99.90;3.70;100621;;;;569563;249;24107;-80
2023/10/10 00:45:14;;;;;;;7.43;5.50;;;4.70;99.90;3.60;100613;;;;569631;249;25211;-81
2023/10/10 00:47:48;;;;;;;8.83;5.53;;;4.60;99.90;3.60;100611;;;;577980;247;24145;-81
2023/10/10 00:50:20;;;;;;;8.43;5.83;;;4.60;99.90;3.60;100625;;;;567682;249;24094;-81
2023/10/10 00:52:46;;;;;;;9.87;5.83;;;4.50;99.90;3.60;100621;;;;568933;249;24112;-80
2023/10/10 00:55:14;;;;;;;8.20;5.03;;;4.50;99.90;3.60;100620;;;;564161;249;35338;-81
2023/10/10 00:57:42;;;;;;;4.73;3.90;;;4.50;99.90;3.60;100621;;;;576902;247;24135;-81
2023/10/10 01:00:13;;;;;;;7.90;4.77;;;4.50;99.90;3.70;100623;;;;577848;247;24083;-81
2023/10/10 01:02:39;;;;;;;8.27;6.23;;;4.60;99.90;3.80;100630;;;;570577;246;24079;-79
2023/10/10 01:05:12;;;;;;;6.67;5.93;;;4.60;99.90;3.80;100625;;;;569015;249;24078;-81
2023/10/10 01:07:43;;;;;;;9.33;6.27;;;4.70;99.90;3.90;100631;;;;568709;249;24091;-81
2023/10/10 01:10:16;;;;;;;7.63;6.27;;;4.80;99.90;3.90;100629;;;;568871;249;24114;-81
2023/10/10 01:12:43;;;;;;;7.37;5.47;;;4.80;99.90;3.90;100634;;;;570592;246;24164;-81
2023/10/10 01:15:26;;;;;;;7.17;5.70;;;4.90;99.90;3.90;100630;;;;569228;249;24095;-81
2023/10/10 01:17:47;;;;;;;8.03;5.63;;;4.80;99.90;3.90;100632;;;;568867;249;24092;-81
2023/10/10 01:20:18;;;;;;;8.47;5.83;;;4.90;99.90;3.90;100626;;;;568401;249;24124;-81
2023/10/10 01:22:48;;;;;;;6.23;5.07;;;4.80;99.90;3.90;100635;;;;568627;249;24119;-81
2023/10/10 01:28:03;;;;;;;8.00;5.47;;;4.90;99.90;4.00;100632;;;;559059;252;24134;-81
2023/10/10 01:33:25;;;;;;;7.53;5.13;;;4.90;99.90;4.00;100632;;;;568506;249;24180;-81
2023/10/10 01:35:49;;;;;;;6.47;5.13;;;4.90;99.90;4.00;100631;;;;568726;249;24093;-81
2023/10/10 01:38:22;;;;;;;7.70;4.00;;;4.90;99.90;4.00;100629;;;;563727;249;35302;-81
2023/10/10 01:40:51;;;;;;;9.02;4.87;;;4.90;99.90;4.10;100634;;;;569076;249;35277;-81
2023/10/10 01:43:19;;;;;;;4.53;3.40;;;4.90;99.90;4.00;100637;;;;568749;249;24139;-81
2023/10/10 01:45:48;;;;;;;4.70;3.10;;;5.00;99.90;4.00;100630;;;;568584;249;24128;-81
2023/10/10 01:48:13;;;;;;;5.77;3.10;;;4.90;99.90;4.00;100631;;;;568225;248;24120;-81
2023/10/10 01:50:41;;;;;;;5.33;3.10;;;4.90;99.90;4.00;100634;;;;568854;248;24105;-81
2023/10/10 01:53:10;;;;;;;7.63;4.90;;;4.90;99.90;4.00;100629;;;;569865;247;24112;-82
2023/10/10 01:55:39;;;;;;;7.53;5.03;;;4.90;99.90;4.00;100633;;;;569796;249;24127;-81
2023/10/10 01:58:11;;;;;;;5.87;5.17;;;4.90;99.90;4.00;100628;;;;569868;249;24090;-81
2023/10/10 02:00:35;;;;;;;7.28;5.95;;;4.90;99.90;4.00;100632;;;;564307;249;35267;-82
2023/10/10 02:03:06;;;;;;;7.07;4.87;;;4.90;99.90;4.00;100634;;;;569272;249;25271;-80
2023/10/10 02:08:09;;;;;;;5.37;4.80;;;4.90;99.90;3.90;100642;;;;569334;249;24082;-81
2023/10/10 02:10:32;;;;;;;9.57;6.20;;;4.80;99.90;3.90;100640;;;;563723;249;35346;-80
2023/10/10 02:13:00;;;;;;;5.97;3.00;;;4.80;99.90;3.90;100634;;;;568575;249;24076;-80
2023/10/10 02:15:32;;;;;;;12.47;4.57;;;4.80;99.90;3.80;100626;;;;568950;249;24074;-80
2023/10/10 02:18:04;;;;;;;8.00;5.07;;;4.80;99.90;3.80;100624;;;;563908;249;35417;-80
2023/10/10 02:28:08;;;;;;;11.07;4.30;;;4.70;99.90;3.70;100629;;;;564280;249;46180;-80
2023/10/10 02:30:37;;;;;;;6.70;2.73;;;4.70;99.90;3.70;100628;;;;574660;249;24099;-80
2023/10/10 02:33:15;;;;;;;5.67;3.47;;;4.60;99.90;3.70;100629;;;;569020;249;24145;-80
2023/10/10 02:35:46;;;;;;;10.17;3.10;;;4.60;99.90;3.70;100633;;;;567257;249;24139;-80
2023/10/10 02:38:05;;;;;;;3.97;3.50;;;4.60;99.90;3.70;100627;;;;567766;249;24127;-80
2023/10/10 02:40:41;;;;;;;4.90;4.37;;;4.60;99.90;3.70;100631;;;;577645;247;24127;-80
2023/10/10 02:45:47;;;;;;;6.53;4.27;;;4.60;99.90;3.60;100623;;;;569179;249;24087;-80
2023/10/10 02:48:23;;;;;;;4.87;3.83;;;4.60;99.90;3.60;100632;;;;568536;249;24179;-79
2023/10/10 02:50:43;;;;;;;6.73;4.47;;;4.60;99.90;3.60;100626;;;;568124;249;24132;-80
2023/10/10 02:53:10;;;;;;;5.78;3.55;;;4.50;99.90;3.60;100625;;;;563528;249;35405;-80
2023/10/10 02:55:41;;;;;;;3.13;2.83;;;4.50;99.90;3.60;100626;;;;568419;249;24092;-80
2023/10/10 02:58:38;;;;;;;2.70;2.37;;;4.50;99.90;3.60;100628;;;;570628;244;24096;-80
2023/10/10 03:00:37;;;;;;;3.50;3.20;;;4.50;99.90;3.60;100626;;;;568864;249;24103;-81
2023/10/10 03:03:07;;;;;;;5.57;4.40;;;4.50;99.90;3.60;100630;;;;570009;248;25157;-80
2023/10/10 03:05:39;;;;;;;5.57;4.40;;;4.50;99.90;3.60;100630;;;;569787;248;24097;-79
2023/10/10 03:08:55;;;;;;;4.90;4.40;;;4.50;99.90;3.60;100634;;;;568058;249;24131;-79
2023/10/10 03:10:44;;;;;;;6.40;4.83;;;4.50;99.90;3.60;100636;;;;565137;249;24135;-80
2023/10/10 03:13:13;;;;;;;5.53;4.50;;;4.50;99.90;3.60;100631;;;;568846;249;24139;-79
2023/10/10 03:15:33;;;;;;;5.10;4.60;;;4.50;99.90;3.60;100626;;;;568706;249;24148;-80
2023/10/10 03:25:52;;;;;;;5.30;4.80;;;4.50;99.90;3.60;100625;;;;569413;249;24120;-80
2023/10/10 03:28:47;;;;;;;5.33;4.60;;;4.50;99.90;3.50;100633;;;;569127;249;24093;-80
2023/10/10 03:31:04;;;;;;;5.97;4.93;;;4.40;99.90;3.50;100627;;;;575466;247;24109;-80
2023/10/10 03:33:37;;;;;;;5.67;5.10;;;4.40;99.90;3.50;100636;;;;577086;247;24101;-80
2023/10/10 03:37:19;;;;;;;7.33;5.57;;;4.40;99.90;3.50;100625;;;;570983;249;24124;-81
2023/10/10 05:23:36;;;;;;;3.87;3.23;;;7.20;99.90;6.50;100663;;;;569017;249;24081;-80
2023/10/10 05:26:02;;;;;;;4.40;2.67;;;7.30;99.90;6.50;100657;;;;569075;248;24095;-80
2023/10/10 05:28:32;;;;;;;4.13;3.43;;;7.40;99.90;6.60;100657;;;;569970;247;24166;-79
2023/10/10 05:30:57;;;;;;;4.13;3.73;;;7.40;99.90;6.60;100652;;;;569787;249;24119;-80
2023/10/10 05:33:26;;;;;;;3.43;3.13;;;7.50;99.90;6.70;100659;;;;569514;247;24152;-80
2023/10/10 05:36:00;;;;;;;5.40;3.20;;;7.60;99.90;6.80;100653;;;;569485;249;24109;-80
2023/10/10 05:38:28;;;;;;;4.43;3.97;;;7.60;99.90;6.90;100656;;;;569251;249;24106;-81
2023/10/10 05:40:57;;;;;;;6.53;3.70;;;7.70;99.90;7.00;100669;;;;568444;249;24104;-81
2023/10/10 05:43:26;;;;;;;3.67;3.23;;;7.80;99.90;7.00;100666;;;;568963;249;24141;-81
2023/10/10 05:45:57;;;;;;;4.77;3.33;;;7.80;99.90;7.10;100662;;;;568834;249;24096;-81
2023/10/10 05:48:26;;;;;;;5.37;3.73;;;7.90;99.90;7.10;100665;;;;568840;249;24101;-81
2023/10/10 05:50:50;;;;;;;5.93;3.97;;;7.90;99.90;7.20;100665;;;;569079;249;24089;-81
2023/10/10 05:53:18;;;;;;;4.13;3.10;;;8.00;99.90;7.20;100661;;;;569308;249;24134;-81
2023/10/10 05:55:51;;;;;;;5.37;3.90;;;8.00;99.90;7.20;100670;;;;569290;249;24140;-80
2023/10/10 05:58:15;;;;;;;6.87;3.30;;;8.00;99.90;7.30;100663;;;;577615;247;24092;-80
2023/10/10 06:00:44;;;;;;;4.10;3.23;;;8.10;99.90;7.30;100670;;;;568954;249;24082;-80
2023/10/10 06:03:12;;;;;;;6.47;3.63;;;8.10;99.90;7.40;100661;;;;568829;249;24102;-80
2023/10/10 06:05:37;;;;;;;5.83;3.63;;;8.20;99.90;7.60;100666;;;;568323;249;24211;-80
2023/10/10 06:08:08;;;;;;;4.83;3.27;;;8.30;99.90;7.80;100669;;;;568520;249;24154;-80
2023/10/10 06:10:36;;;;;;;8.13;3.80;;;8.50;99.90;8.10;100661;;;;568900;249;24202;-79
2023/10/10 06:13:06;;;;;;;3.73;3.10;;;8.80;99.90;8.30;100667;;;;568995;249;24108;-80
2023/10/10 06:15:35;;;;;;;5.40;3.60;;;9.30;99.90;8.60;100668;;;;577890;247;24135;-80
2023/10/10 06:18:13;;;;;;;6.67;3.53;;;9.30;99.90;8.90;100666;;;;568481;249;24179;-80
2023/10/10 06:20:43;;;;;;;3.73;3.13;;;9.50;99.90;9.10;100672;;;;567853;249;24188;-80
2023/10/10 06:23:20;;;;;;;4.90;3.10;;;9.80;99.90;9.70;100664;;;;568301;249;24143;-80
2023/10/10 06:25:45;;;;;;;4.30;2.70;;;10.40;99.90;11.20;100675;;;;568531;249;24088;-80
2023/10/10 06:31:00;;;;;;;4.57;2.87;;;12.90;99.90;14.20;100682;;;;565651;249;24105;-79
2023/10/10 06:33:28;;;;;;;5.90;3.10;;;16.00;99.90;15.70;100687;;;;569216;249;24142;-80
2023/10/10 06:36:25;;;;;;;2.97;2.53;;;15.90;99.90;16.80;100694;;;;577073;247;24109;-79
2023/10/10 06:38:32;;;;;;;7.63;3.73;;;17.10;99.90;17.10;100695;;;;568742;248;24143;-79
2023/10/10 06:40:59;;;;;;;10.73;3.80;;;17.60;99.90;17.50;100698;;;;569183;249;24206;-80
2023/10/10 06:43:32;;;;;;;7.17;3.50;;;18.20;99.90;17.60;100691;;;;569366;249;24093;-80
2023/10/10 06:45:55;;;;;;;6.27;2.80;;;19.10;99.90;18.80;100695;;;;569015;249;24112;-79
2023/10/10 06:48:32;;;;;;;3.50;3.00;;;19.10;99.90;20.40;100704;;;;568904;249;24092;-80
2023/10/10 06:50:51;;;;;;;5.43;3.03;;;20.50;99.90;21.90;100700;;;;568856;249;24109;-80
2023/10/10 06:53:37;;;;;;;5.10;2.60;;;22.00;97.70;22.80;100710;;;;569187;249;24113;-80
2023/10/10 06:56:18;;;;;;;6.70;2.97;;;23.80;89.20;23.30;100702;;;;569144;249;23161;-81
2023/10/10 06:58:46;;;;;;;3.67;3.23;;;23.70;89.10;23.50;100707;;;;577725;247;23108;-79
2023/10/10 07:01:19;;;;;;;3.83;3.50;;;24.10;84.20;24.30;100716;;;;569309;249;24102;-81
2023/10/10 07:03:46;;;;;;;4.53;3.50;;;24.70;81.40;24.70;100712;;;;568348;249;23119;-81
2023/10/10 07:06:09;;;;;;;3.83;3.03;;;25.30;75.80;24.40;100711;;;;568965;249;24133;-79
2023/10/10 07:08:37;;;;;;;5.43;2.97;;;25.20;73.70;23.90;100710;;;;569187;249;23114;-80
2023/10/10 07:11:05;;;;;;;4.37;2.40;;;24.80;72.60;23.80;100708;;;;568822;249;23095;-81
2023/10/10 07:13:35;;;;;;;6.10;3.07;;;24.60;73.20;23.20;100720;;;;568808;249;23157;-80
2023/10/10 07:16:01;;;;;;;8.43;3.07;;;24.20;73.10;22.80;100717;;;;568431;249;23149;-80
2023/10/10 07:18:31;;;;;;;4.17;2.90;;;23.30;75.10;22.40;100722;;;;568565;249;23157;-80
2023/10/10 07:21:06;;;;;;;3.20;2.57;;;22.60;75.80;21.40;100727;;;;568503;247;24124;-81
2023/10/10 07:23:38;;;;;;;5.07;2.90;;;22.50;75.70;20.50;100728;;;;568791;249;24145;-81
2023/10/10 07:26:21;;;;;;;3.43;2.73;;;21.00;80.10;19.80;100730;;;;569137;249;24336;-81
2023/10/10 07:28:49;;;;;;;3.73;2.90;;;20.90;80.10;18.90;100733;;;;569017;249;24110;-81
2023/10/10 07:31:24;;;;;;;2.77;2.57;;;19.20;85.00;18.10;100734;;;;574964;248;24128;-81
2023/10/10 07:34:03;;;;;;;2.93;2.50;;;18.40;87.00;17.50;100733;;;;568848;249;23111;-80
2023/10/10 07:36:25;;;;;;;6.33;3.20;;;17.80;89.40;16.90;100738;;;;568447;249;23120;-80
2023/10/10 07:39:04;;;;;;;8.70;2.67;;;17.30;90.70;16.40;100740;;;;568787;249;24085;-80
2023/10/10 07:41:27;;;;;;;5.37;2.70;;;17.30;90.70;15.90;100740;;;;567606;249;24101;-80
2023/10/10 07:43:52;;;;;;;2.40;2.20;;;16.30;92.80;15.40;100743;;;;568411;249;24215;-80
2023/10/10 07:46:22;;;;;;;12.97;2.87;;;15.90;93.80;15.10;100753;;;;568643;249;24129;-79
2023/10/10 07:48:53;;;;;;;5.50;2.17;;;15.80;93.70;14.80;100741;;;;568811;248;23138;-79
2023/10/10 07:51:27;;;;;;;2.90;2.00;;;15.60;95.00;14.60;100749;;;;569945;249;24080;-81
2023/10/10 07:53:48;;;;;;;4.37;2.53;;;15.30;96.10;14.30;100742;;;;568993;249;24087;-80
2023/10/10 07:56:12;;;;;;;4.03;2.40;;;15.00;96.90;14.20;100745;;;;569264;249;24117;-81
2023/10/10 07:58:56;;;;;;;3.07;2.37;;;14.80;97.90;14.00;100750;;;;569765;249;24119;-82
2023/10/10 08:01:20;;;;;;;6.70;2.10;;;14.60;99.00;13.80;100746;;;;569264;249;24164;-80
2023/10/10 08:03:47;;;;;;;4.13;1.93;;;14.50;99.90;13.70;100745;;;;577732;246;24112;-80
2023/10/10 08:06:21;;;;;;;2.60;2.40;;;14.30;99.90;13.50;100750;;;;569656;249;24095;-79
2023/10/10 08:09:09;;;;;;;2.17;2.07;;;14.20;99.90;13.40;100746;;;;569034;249;24143;-81
2023/10/10 08:11:35;;;;;;;3.77;2.23;;;14.00;99.90;13.30;100749;;;;567514;249;24097;-80
2023/10/10 08:13:48;;;;;;;3.53;2.73;;;13.90;99.90;13.10;100749;;;;567768;249;24092;-80
2023/10/10 08:16:19;;;;;;;2.13;2.03;;;13.70;99.90;13.00;100757;;;;568432;249;24138;-81
2023/10/10 08:21:18;;;;;;;3.43;2.13;;;13.50;99.90;12.90;100753;;;;569360;249;24085;-80
2023/10/10 08:23:45;;;;;;;7.83;2.17;;;13.40;99.90;12.80;100758;;;;568472;249;24124;-79
2023/10/10 08:26:38;;;;;;;3.63;2.43;;;13.40;99.90;12.80;100764;;;;568714;247;24145;-80
2023/10/10 08:28:57;;;;;;;2.87;2.40;;;13.40;99.90;12.80;100764;;;;568397;249;24099;-81
2023/10/10 08:31:25;;;;;;;2.43;2.23;;;13.30;99.90;12.70;100770;;;;569090;249;24105;-80
2023/10/10 08:33:53;;;;;;;3.83;2.87;;;13.30;99.90;12.70;100761;;;;568985;249;24077;-82
2023/10/10 08:36:24;;;;;;;5.80;2.90;;;13.30;99.90;12.60;100756;;;;568858;248;24117;-81
2023/10/10 08:39:01;;;;;;;3.60;3.20;;;13.20;99.90;12.50;100756;;;;577815;246;24203;-80
2023/10/10 08:41:26;;;;;;;4.60;3.07;;;13.20;99.90;12.50;100759;;;;568536;249;24093;-80
2023/10/10 08:44:06;;;;;;;4.63;3.33;;;13.10;99.90;12.40;100751;;;;577136;247;24090;-80
2023/10/10 08:46:31;;;;;;;4.43;2.97;;;13.00;99.90;12.40;100753;;;;568150;249;24105;-80
2023/10/10 08:49:05;;;;;;;5.03;3.27;;;13.00;99.90;12.40;100751;;;;568389;249;24148;-80
2023/10/10 08:51:33;;;;;;;4.37;3.97;;;13.00;99.90;12.30;100758;;;;563764;249;35298;-81
2023/10/10 08:54:09;;;;;;;4.57;3.33;;;13.00;99.90;12.30;100751;;;;568603;248;24208;-80
2023/10/10 08:56:37;;;;;;;5.77;3.63;;;12.90;99.90;12.30;100758;;;;568493;249;24131;-80
2023/10/10 08:59:03;;;;;;;3.83;3.40;;;12.80;99.90;12.20;100750;;;;577499;247;24118;-82
2023/10/10 09:01:34;;;;;;;6.50;3.97;;;12.80;99.90;12.10;100761;;;;570027;248;24111;-82
2023/10/10 09:03:59;;;;;;;4.37;3.97;;;12.80;99.90;12.10;100764;;;;577978;247;24076;-81
2023/10/10 09:12:04;;;;;;;7.43;4.37;;;12.90;99.90;12.30;100768;;;;554764;249;35344;-81
2023/10/10 09:14:41;;;;;;;4.73;4.10;;;12.90;99.90;12.40;100764;;;;566094;249;25188;-81
2023/10/10 09:17:11;;;;;;;5.22;3.83;;;13.00;99.90;12.50;100765;;;;563854;249;46273;-81
2023/10/10 09:19:40;;;;;;;3.87;3.53;;;13.20;99.90;12.60;100772;;;;567991;249;24120;-79
2023/10/10 09:22:25;;;;;;;4.07;3.40;;;13.20;99.90;12.70;100769;;;;568922;248;24129;-80
2023/10/10 09:24:38;;;;;;;3.77;3.20;;;13.30;99.90;12.80;100770;;;;568021;249;24162;-81
2023/10/10 09:27:10;;;;;;;5.33;3.23;;;13.40;99.90;12.80;100772;;;;569158;249;24098;-80
2023/10/10 09:29:42;;;;;;;4.10;3.03;;;13.50;99.90;12.90;100767;;;;567894;249;24119;-80
2023/10/10 09:32:05;;;;;;;5.43;3.67;;;13.50;99.90;12.80;100772;;;;568700;249;24132;-78
2023/10/10 09:34:40;;;;;;;3.60;3.07;;;13.40;99.90;12.70;100775;;;;569162;249;24081;-79
2023/10/10 09:37:00;;;;;;;5.87;3.43;;;13.40;99.90;12.60;100772;;;;568529;249;24105;-80
2023/10/10 09:39:37;;;;;;;3.40;2.90;;;13.30;99.90;12.50;100775;;;;577442;247;24099;-80
2023/10/10 09:42:45;;;;;;;4.57;3.43;;;13.20;99.90;12.40;100771;;;;568578;249;24100;-80
2023/10/10 09:47:37;;;;;;;4.27;3.20;;;13.00;99.90;12.40;100772;;;;557658;253;24116;-81
2023/10/10 09:50:28;;;;;;;4.30;3.90;;;13.00;99.90;12.50;100776;;;;573439;247;24081;-81
2023/10/10 09:57:58;;;;;;;3.50;2.93;;;13.20;99.90;12.60;100765;;;;568989;248;24101;-80
2023/10/10 10:00:13;;;;;;;6.23;3.70;;;13.20;99.90;12.60;100765;;;;577802;247;24177;-79
2023/10/10 10:02:56;;;;;;;3.67;3.13;;;13.20;99.90;12.60;100761;;;;567692;249;24143;-80
2023/10/10 10:05:17;;;;;;;8.63;3.57;;;13.20;99.90;12.60;100755;;;;568659;247;24109;-80
2023/10/10 10:08:07;;;;;;;3.73;3.33;;;13.20;99.90;12.70;100760;;;;568827;249;24120;-79
2023/10/10 10:10:54;;;;;;;4.03;3.20;;;13.30;99.90;12.70;100758;;;;568332;249;24138;-79
2023/10/10 10:13:37;;;;;;;4.03;2.77;;;13.30;99.90;12.80;100764;;;;568190;248;24157;-79
2023/10/10 10:16:19;;;;;;;3.47;3.17;;;13.40;99.90;12.80;100761;;;;577802;247;24180;-80
2023/10/10 10:18:51;;;;;;;3.90;3.60;;;13.50;99.90;12.90;100754;;;;564088;249;35259;-80
2023/10/10 10:21:18;;;;;;;7.00;4.10;;;13.50;99.90;12.90;100749;;;;569216;249;24100;-81
2023/10/10 10:23:56;;;;;;;4.30;3.07;;;13.60;99.90;12.90;100749;;;;569126;249;24074;-81
2023/10/10 10:26:53;;;;;;;2.50;2.30;;;13.60;99.90;13.00;100758;;;;568157;249;24090;-80
2023/10/10 10:28:57;;;;;;;4.20;2.67;;;13.70;99.90;13.10;100756;;;;567906;249;24104;-81
2023/10/10 10:31:28;;;;;;;6.63;3.40;;;13.90;99.90;13.20;100742;;;;569625;249;24113;-81
2023/10/10 10:34:06;;;;;;;4.73;3.33;;;14.00;99.90;13.40;100753;;;;568563;249;24093;-80
2023/10/10 10:36:47;;;;;;;4.30;2.90;;;14.00;99.90;13.60;100758;;;;569334;249;24095;-81
2023/10/10 10:39:23;;;;;;;8.10;2.63;;;14.20;99.90;13.70;100751;;;;569439;249;24122;-81
2023/10/10 10:41:56;;;;;;;4.30;2.57;;;14.30;99.90;13.70;100762;;;;569119;249;24086;-82
2023/10/10 10:47:38;;;;;;;7.17;3.13;;;14.40;99.90;13.80;100756;;;;568904;249;24099;-81
2023/10/10 10:50:10;;;;;;;2.50;2.30;;;14.50;99.90;13.80;100749;;;;570460;246;24166;-81
2023/10/10 10:52:46;;;;;;;2.83;2.47;;;14.50;99.90;13.90;100753;;;;567664;249;24130;-82
2023/10/10 10:55:20;;;;;;;6.03;2.50;;;14.40;99.90;14.00;100743;;;;568610;249;24096;-82
2023/10/10 10:57:42;;;;;;;4.57;2.17;;;14.60;99.90;14.00;100743;;;;568585;249;24146;-82
2023/10/10 11:00:20;;;;;;;3.40;2.60;;;14.60;99.90;14.00;100743;;;;569187;247;24109;-82
2023/10/10 11:02:38;;;;;;;2.53;2.03;;;14.60;99.90;14.00;100744;;;;576754;248;24085;-82
2023/10/10 11:05:07;;;;;;;3.63;2.37;;;14.70;99.90;14.10;100744;;;;569121;249;24138;-80
2023/10/10 11:07:45;;;;;;;9.50;2.30;;;14.70;99.90;14.10;100738;;;;570660;249;24080;-79
2023/10/10 11:10:10;;;;;;;7.50;2.50;;;14.70;99.90;14.10;100735;;;;576030;248;24137;-82
2023/10/10 11:12:37;;;;;;;4.13;1.97;;;14.70;99.90;14.00;100737;;;;570793;246;24103;-80
2023/10/10 11:15:10;;;;;;;5.70;2.63;;;14.70;99.90;14.00;100740;;;;568938;249;24115;-80
2023/10/10 11:17:39;;;;;;;3.10;2.57;;;14.70;99.90;14.00;100731;;;;565793;249;24086;-79
2023/10/10 11:20:25;;;;;;;2.90;2.40;;;14.60;99.90;14.00;100724;;;;568748;249;24107;-79
2023/10/10 11:22:41;;;;;;;2.80;2.40;;;14.60;99.90;14.00;100733;;;;567685;249;24092;-80
2023/10/10 11:25:11;;;;;;;3.43;2.67;;;14.70;99.90;14.00;100735;;;;570726;248;24088;-79
2023/10/10 11:27:43;;;;;;;3.20;2.90;;;14.60;99.90;14.00;100737;;;;569498;249;24087;-79
2023/10/10 11:30:08;;;;;;;5.40;2.80;;;14.70;99.90;14.00;100736;;;;569705;247;24131;-80
2023/10/10 11:32:36;;;;;;;7.17;3.13;;;14.60;99.90;14.00;100736;;;;569504;249;24127;-80
2023/10/10 11:35:17;;;;;;;2.83;2.57;;;14.60;99.90;14.00;100728;;;;569166;249;24109;-79
2023/10/10 11:37:47;;;;;;;2.90;2.57;;;14.60;99.90;14.00;100721;;;;569031;249;24104;-80
2023/10/10 11:40:36;;;;;;;6.73;2.80;;;14.70;99.90;14.10;100718;;;;568940;249;24082;-78
2023/10/10 11:42:48;;;;;;;2.70;2.37;;;14.70;99.90;14.00;100718;;;;565582;249;24109;-81
2023/10/10 11:45:19;;;;;;;3.13;2.27;;;14.60;99.90;14.00;100713;;;;566023;252;24129;-80
2023/10/10 11:47:44;;;;;;;3.43;2.40;;;14.60;99.90;14.00;100724;;;;568638;249;24137;-78
2023/10/10 11:50:22;;;;;;;2.50;2.30;;;14.60;99.90;14.10;100724;;;;567262;249;24101;-80
2023/10/10 11:52:58;;;;;;;4.03;2.77;;;14.70;99.90;14.10;100725;;;;569167;249;24094;-79
2023/10/10 11:55:26;;;;;;;3.37;2.27;;;14.70;99.90;14.10;100725;;;;569316;248;24086;-79
2023/10/10 11:58:07;;;;;;;7.57;2.23;;;14.70;99.90;14.20;100719;;;;569320;249;24136;-80
2023/10/10 12:00:38;;;;;;;3.10;2.43;;;14.80;99.90;14.20;100721;;;;568844;249;24101;-80
2023/10/10 12:03:05;;;;;;;6.87;2.47;;;14.80;99.90;14.10;100712;;;;568583;249;24144;-81
2023/10/10 12:07:58;;;;;;;2.40;1.80;;;14.80;99.90;14.20;100698;;;;569482;249;24089;-80
2023/10/10 12:10:39;;;;;;;2.53;2.33;;;14.80;99.90;14.20;100698;;;;568631;249;24134;-80
2023/10/10 12:12:53;;;;;;;2.30;2.10;;;14.80;99.90;14.30;100704;;;;576358;247;24106;-81
2023/10/10 12:15:22;;;;;;;2.63;2.40;;;14.90;99.90;14.40;100711;;;;569004;249;24069;-81
2023/10/10 12:17:52;;;;;;;3.27;2.83;;;15.00;99.90;14.60;100703;;;;568779;249;24158;-78
2023/10/10 12:20:24;;;;;;;3.53;2.07;;;15.10;99.90;14.60;100707;;;;568700;249;24199;-80
2023/10/10 12:22:48;;;;;;;2.23;2.10;;;15.40;99.90;14.80;100716;;;;568593;249;24097;-80
2023/10/10 12:25:17;;;;;;;2.63;2.33;;;15.50;99.90;14.90;100720;;;;569319;249;24101;-80
2023/10/10 12:27:46;;;;;;;3.70;2.40;;;15.50;99.90;15.10;100713;;;;568791;249;24102;-79
2023/10/10 12:30:16;;;;;;;3.97;2.87;;;15.70;99.90;15.10;100706;;;;569111;249;24095;-79
2023/10/10 12:32:40;;;;;;;3.90;2.50;;;15.70;99.90;15.10;100711;;;;568123;249;24093;-79
2023/10/10 12:35:12;;;;;;;2.60;2.40;;;15.80;99.90;15.20;100715;;;;569712;248;24084;-80
2023/10/10 12:37:38;;;;;;;4.93;2.30;;;15.80;99.90;15.30;100703;;;;572106;247;24105;-80
2023/10/10 12:40:09;;;;;;;3.17;2.50;;;15.90;99.90;15.40;100706;;;;569839;249;25241;-80
2023/10/10 12:42:32;;;;;;;4.13;3.00;;;15.90;99.90;15.40;100712;;;;571596;248;24092;-80
2023/10/10 12:45:01;;;;;;;4.00;2.40;;;16.00;99.90;15.40;100708;;;;569774;249;24089;-79
2023/10/10 12:47:31;;;;;;;4.25;3.17;;;16.10;99.90;15.40;100709;;;;564275;249;35268;-79
2023/10/10 12:50:01;;;;;;;3.73;2.90;;;16.10;99.90;15.40;100704;;;;568919;249;24081;-79
2023/10/10 12:52:34;;;;;;;3.70;2.80;;;16.00;99.90;15.30;100709;;;;569388;249;24137;-80
2023/10/10 12:54:57;;;;;;;3.23;2.93;;;16.00;99.90;15.20;100712;;;;568516;249;24132;-81
2023/10/10 12:57:23;;;;;;;7.37;2.90;;;15.90;99.80;15.10;100704;;;;569154;249;24095;-80
2023/10/10 12:59:51;;;;;;;8.80;3.47;;;15.70;99.90;15.00;100708;;;;569381;249;24089;-81
2023/10/10 13:02:17;;;;;;;2.90;2.70;;;15.60;99.90;14.90;100707;;;;569318;249;24097;-80
2023/10/10 13:04:46;;;;;;;6.97;3.40;;;15.50;99.90;14.80;100700;;;;569343;249;24088;-79
2023/10/10 13:07:16;;;;;;;6.20;3.63;;;15.50;99.90;14.80;100695;;;;569680;248;24078;-80
2023/10/10 13:09:46;;;;;;;3.67;3.40;;;15.40;99.90;14.80;100691;;;;568808;249;24100;-81
2023/10/10 13:12:18;;;;;;;6.23;3.73;;;15.40;99.90;14.80;100701;;;;568707;249;24152;-81
2023/10/10 13:14:47;;;;;;;4.33;3.90;;;15.40;99.90;14.70;100696;;;;568193;249;24126;-79
2023/10/10 13:17:29;;;;;;;4.57;4.10;;;15.40;99.90;14.70;100696;;;;568532;249;24108;-81
2023/10/10 13:19:41;;;;;;;6.03;3.97;;;15.30;99.90;14.70;100704;;;;568018;249;24107;-80
2023/10/10 13:22:20;;;;;;;4.10;3.70;;;15.30;99.90;14.60;100698;;;;568623;249;24104;-80
2023/10/10 13:24:40;;;;;;;6.97;4.17;;;15.30;99.90;14.60;100684;;;;568314;249;24105;-80
2023/10/10 13:27:20;;;;;;;5.10;4.13;;;15.20;99.90;14.60;100676;;;;569029;248;24098;-79
2023/10/10 13:29:41;;;;;;;5.97;4.00;;;15.20;99.90;14.50;100681;;;;565298;249;24146;-81
2023/10/10 13:32:12;;;;;;;7.65;4.72;;;15.20;99.90;14.50;100679;;;;563927;249;35265;-80
2023/10/10 13:34:43;;;;;;;3.93;3.60;;;15.10;99.90;14.50;100670;;;;569328;249;24076;-80
2023/10/10 13:37:09;;;;;;;6.83;4.40;;;15.10;99.90;14.40;100664;;;;568618;249;24104;-79
2023/10/10 13:39:48;;;;;;;4.37;3.97;;;15.00;99.90;14.30;100658;;;;569082;249;24102;-79
2023/10/10 13:42:20;;;;;;;8.33;4.27;;;14.80;99.90;14.20;100659;;;;569232;249;24116;-79
2023/10/10 13:44:44;;;;;;;4.37;3.90;;;14.80;99.90;14.20;100657;;;;568951;249;24140;-80
2023/10/10 13:47:13;;;;;;;5.40;3.73;;;14.80;99.90;14.10;100652;;;;569612;248;24079;-79
2023/10/10 13:49:46;;;;;;;3.83;3.43;;;14.80;99.90;14.00;100652;;;;569515;249;24122;-79
2023/10/10 13:52:16;;;;;;;6.07;3.50;;;14.70;99.90;14.00;100649;;;;569758;249;25135;-80
2023/10/10 13:54:47;;;;;;;3.80;3.50;;;14.60;99.90;14.00;100643;;;;578381;247;24096;-79
2023/10/10 13:57:18;;;;;;;15.03;4.80;;;14.60;99.90;13.90;100638;;;;569504;249;24107;-81
2023/10/10 13:59:47;;;;;;;8.43;4.00;;;14.50;99.90;13.90;100640;;;;569403;248;24090;-81
2023/10/10 14:02:11;;;;;;;10.10;4.20;;;14.50;99.90;13.80;100652;;;;569330;249;24092;-82